sensor_id;sensor_type;location;lat;lon;timestamp;P1;durP1;ratioP1;P2;durP2;ratioP2
7166;SDS011;3625;51.762;14.320;2022-07-23T00:01:32;4.22;;;3.40;;
7166;SDS011;3625;51.762;14.320;2022-07-23T00:04:01;3.35;;;3.15;;
7166;SDS011;3625;51.762;14.320;2022-07-23T00:06:30;3.75;;;3.45;;
7166;SDS011;3625;51.762;14.320;2022-07-23T00:08:59;4.32;;;3.83;;
7166;SDS011;3625;51.762;14.320;2022-07-23T00:11:28;3.40;;;3.20;;
7166;SDS011;3625;51.762;14.320;2022-07-23T00:13:57;3.88;;;3.45;;
7166;SDS011;3625;51.762;14.320;2022-07-23T00:16:27;4.22;;;3.85;;
7166;SDS011;3625;51.762;14.320;2022-07-23T00:18:57;4.30;;;3.55;;
7166;SDS011;3625;51.762;14.320;2022-07-23T00:21:28;4.00;;;3.70;;
7166;SDS011;3625;51.762;14.320;2022-07-23T00:23:57;3.88;;;3.50;;
7166;SDS011;3625;51.762;14.320;2022-07-23T00:26:26;3.25;;;3.05;;
7166;SDS011;3625;51.762;14.320;2022-07-23T00:28:55;3.72;;;3.45;;
7166;SDS011;3625;51.762;14.320;2022-07-23T00:31:24;3.65;;;3.40;;
7166;SDS011;3625;51.762;14.320;2022-07-23T00:33:55;3.30;;;3.10;;
7166;SDS011;3625;51.762;14.320;2022-07-23T00:36:24;3.60;;;3.30;;
7166;SDS011;3625;51.762;14.320;2022-07-23T00:38:53;3.60;;;3.30;;
7166;SDS011;3625;51.762;14.320;2022-07-23T00:41:23;3.55;;;3.25;;
7166;SDS011;3625;51.762;14.320;2022-07-23T00:43:52;3.72;;;3.42;;
7166;SDS011;3625;51.762;14.320;2022-07-23T00:46:21;4.25;;;3.28;;
7166;SDS011;3625;51.762;14.320;2022-07-23T00:48:51;3.53;;;3.22;;
7166;SDS011;3625;51.762;14.320;2022-07-23T00:51:22;3.58;;;3.38;;
7166;SDS011;3625;51.762;14.320;2022-07-23T00:53:50;4.10;;;3.80;;
7166;SDS011;3625;51.762;14.320;2022-07-23T00:56:20;3.75;;;3.45;;
7166;SDS011;3625;51.762;14.320;2022-07-23T00:58:49;3.95;;;3.65;;
7166;SDS011;3625;51.762;14.320;2022-07-23T01:01:18;3.58;;;3.28;;
7166;SDS011;3625;51.762;14.320;2022-07-23T01:03:48;4.40;;;4.10;;
7166;SDS011;3625;51.762;14.320;2022-07-23T01:06:17;3.70;;;3.40;;
7166;SDS011;3625;51.762;14.320;2022-07-23T01:08:47;4.85;;;3.92;;
7166;SDS011;3625;51.762;14.320;2022-07-23T01:11:16;3.60;;;3.30;;
7166;SDS011;3625;51.762;14.320;2022-07-23T01:13:47;3.97;;;3.70;;
7166;SDS011;3625;51.762;14.320;2022-07-23T01:16:16;3.47;;;3.28;;
7166;SDS011;3625;51.762;14.320;2022-07-23T01:18:45;4.25;;;3.95;;
7166;SDS011;3625;51.762;14.320;2022-07-23T01:21:14;3.97;;;3.67;;
7166;SDS011;3625;51.762;14.320;2022-07-23T01:23:48;3.55;;;3.35;;
7166;SDS011;3625;51.762;14.320;2022-07-23T01:26:18;3.80;;;3.25;;
7166;SDS011;3625;51.762;14.320;2022-07-23T01:28:47;3.80;;;3.50;;
7166;SDS011;3625;51.762;14.320;2022-07-23T01:31:16;4.45;;;4.05;;
7166;SDS011;3625;51.762;14.320;2022-07-23T01:33:46;3.50;;;3.20;;
7166;SDS011;3625;51.762;14.320;2022-07-23T01:36:15;4.13;;;3.83;;
7166;SDS011;3625;51.762;14.320;2022-07-23T01:38:44;4.30;;;4.00;;
7166;SDS011;3625;51.762;14.320;2022-07-23T01:41:15;4.57;;;4.15;;
7166;SDS011;3625;51.762;14.320;2022-07-23T01:43:45;4.57;;;4.18;;
7166;SDS011;3625;51.762;14.320;2022-07-23T01:46:14;4.80;;;4.40;;
7166;SDS011;3625;51.762;14.320;2022-07-23T01:48:47;4.70;;;4.40;;
7166;SDS011;3625;51.762;14.320;2022-07-23T01:51:48;4.60;;;3.97;;
7166;SDS011;3625;51.762;14.320;2022-07-23T01:54:36;3.80;;;3.35;;
7166;SDS011;3625;51.762;14.320;2022-07-23T01:57:10;3.83;;;3.55;;
7166;SDS011;3625;51.762;14.320;2022-07-23T01:59:39;3.42;;;3.20;;
7166;SDS011;3625;51.762;14.320;2022-07-23T02:02:09;3.95;;;3.65;;
7166;SDS011;3625;51.762;14.320;2022-07-23T02:04:38;4.20;;;3.90;;
7166;SDS011;3625;51.762;14.320;2022-07-23T02:07:07;4.00;;;3.72;;
7166;SDS011;3625;51.762;14.320;2022-07-23T02:09:35;4.47;;;4.15;;
7166;SDS011;3625;51.762;14.320;2022-07-23T02:12:04;4.22;;;3.92;;
7166;SDS011;3625;51.762;14.320;2022-07-23T02:14:34;4.10;;;3.80;;
7166;SDS011;3625;51.762;14.320;2022-07-23T02:17:04;4.20;;;3.90;;
7166;SDS011;3625;51.762;14.320;2022-07-23T02:19:34;4.25;;;3.95;;
7166;SDS011;3625;51.762;14.320;2022-07-23T02:22:03;4.35;;;4.00;;
7166;SDS011;3625;51.762;14.320;2022-07-23T02:24:32;4.45;;;4.05;;
7166;SDS011;3625;51.762;14.320;2022-07-23T02:27:01;4.35;;;3.95;;
7166;SDS011;3625;51.762;14.320;2022-07-23T02:29:31;4.30;;;3.90;;
7166;SDS011;3625;51.762;14.320;2022-07-23T02:32:02;4.53;;;4.13;;
7166;SDS011;3625;51.762;14.320;2022-07-23T02:34:33;5.53;;;4.07;;
7166;SDS011;3625;51.762;14.320;2022-07-23T02:37:02;4.50;;;4.10;;
7166;SDS011;3625;51.762;14.320;2022-07-23T02:39:31;4.60;;;4.20;;
7166;SDS011;3625;51.762;14.320;2022-07-23T02:42:00;5.25;;;4.70;;
7166;SDS011;3625;51.762;14.320;2022-07-23T02:44:31;4.35;;;4.05;;
7166;SDS011;3625;51.762;14.320;2022-07-23T02:47:02;4.82;;;4.43;;
7166;SDS011;3625;51.762;14.320;2022-07-23T02:49:33;4.60;;;4.20;;
7166;SDS011;3625;51.762;14.320;2022-07-23T02:52:04;5.15;;;4.75;;
7166;SDS011;3625;51.762;14.320;2022-07-23T02:54:33;4.43;;;4.00;;
7166;SDS011;3625;51.762;14.320;2022-07-23T02:57:02;4.70;;;4.30;;
7166;SDS011;3625;51.762;14.320;2022-07-23T02:59:31;4.40;;;3.90;;
7166;SDS011;3625;51.762;14.320;2022-07-23T03:02:01;6.18;;;4.68;;
7166;SDS011;3625;51.762;14.320;2022-07-23T03:04:30;5.03;;;4.53;;
7166;SDS011;3625;51.762;14.320;2022-07-23T03:07:00;4.38;;;3.97;;
7166;SDS011;3625;51.762;14.320;2022-07-23T03:09:28;5.05;;;4.40;;
7166;SDS011;3625;51.762;14.320;2022-07-23T03:11:58;4.50;;;4.20;;
7166;SDS011;3625;51.762;14.320;2022-07-23T03:14:26;4.80;;;4.30;;
7166;SDS011;3625;51.762;14.320;2022-07-23T03:16:55;4.60;;;4.20;;
7166;SDS011;3625;51.762;14.320;2022-07-23T03:19:27;4.93;;;4.32;;
7166;SDS011;3625;51.762;14.320;2022-07-23T03:21:56;4.43;;;4.03;;
7166;SDS011;3625;51.762;14.320;2022-07-23T03:24:25;4.15;;;3.75;;
7166;SDS011;3625;51.762;14.320;2022-07-23T03:27:15;4.28;;;3.92;;
7166;SDS011;3625;51.762;14.320;2022-07-23T03:29:44;4.35;;;3.95;;
7166;SDS011;3625;51.762;14.320;2022-07-23T03:32:13;4.53;;;4.13;;
7166;SDS011;3625;51.762;14.320;2022-07-23T03:34:44;3.88;;;3.58;;
7166;SDS011;3625;51.762;14.320;2022-07-23T03:37:13;4.50;;;3.97;;
7166;SDS011;3625;51.762;14.320;2022-07-23T03:39:42;5.97;;;3.95;;
7166;SDS011;3625;51.762;14.320;2022-07-23T03:42:11;4.30;;;3.85;;
7166;SDS011;3625;51.762;14.320;2022-07-23T03:44:40;5.25;;;3.97;;
7166;SDS011;3625;51.762;14.320;2022-07-23T03:47:09;4.90;;;3.88;;
7166;SDS011;3625;51.762;14.320;2022-07-23T03:49:38;4.50;;;4.10;;
7166;SDS011;3625;51.762;14.320;2022-07-23T03:52:09;5.60;;;3.97;;
7166;SDS011;3625;51.762;14.320;2022-07-23T03:54:37;5.47;;;3.85;;
7166;SDS011;3625;51.762;14.320;2022-07-23T03:57:06;4.55;;;3.72;;
7166;SDS011;3625;51.762;14.320;2022-07-23T03:59:35;5.47;;;4.10;;
7166;SDS011;3625;51.762;14.320;2022-07-23T04:02:04;4.53;;;4.13;;
7166;SDS011;3625;51.762;14.320;2022-07-23T04:04:33;4.38;;;3.97;;
7166;SDS011;3625;51.762;14.320;2022-07-23T04:07:02;5.38;;;4.32;;
7166;SDS011;3625;51.762;14.320;2022-07-23T04:09:33;4.55;;;3.80;;
7166;SDS011;3625;51.762;14.320;2022-07-23T04:12:02;5.18;;;4.10;;
7166;SDS011;3625;51.762;14.320;2022-07-23T04:14:31;4.30;;;3.78;;
7166;SDS011;3625;51.762;14.320;2022-07-23T04:17:00;3.80;;;3.42;;
7166;SDS011;3625;51.762;14.320;2022-07-23T04:19:30;4.75;;;3.60;;
7166;SDS011;3625;51.762;14.320;2022-07-23T04:22:03;3.78;;;3.38;;
7166;SDS011;3625;51.762;14.320;2022-07-23T04:24:36;4.32;;;3.55;;
7166;SDS011;3625;51.762;14.320;2022-07-23T04:27:07;4.57;;;4.15;;
7166;SDS011;3625;51.762;14.320;2022-07-23T04:29:36;4.82;;;4.03;;
7166;SDS011;3625;51.762;14.320;2022-07-23T04:32:05;5.18;;;4.00;;
7166;SDS011;3625;51.762;14.320;2022-07-23T04:34:34;3.90;;;3.55;;
7166;SDS011;3625;51.762;14.320;2022-07-23T04:37:04;3.95;;;3.55;;
7166;SDS011;3625;51.762;14.320;2022-07-23T04:39:36;4.03;;;3.58;;
7166;SDS011;3625;51.762;14.320;2022-07-23T04:42:05;4.65;;;4.25;;
7166;SDS011;3625;51.762;14.320;2022-07-23T04:44:34;4.13;;;3.80;;
7166;SDS011;3625;51.762;14.320;2022-07-23T04:47:05;4.15;;;3.75;;
7166;SDS011;3625;51.762;14.320;2022-07-23T04:49:34;4.60;;;4.20;;
7166;SDS011;3625;51.762;14.320;2022-07-23T04:52:05;4.55;;;4.25;;
7166;SDS011;3625;51.762;14.320;2022-07-23T04:54:36;4.10;;;3.70;;
7166;SDS011;3625;51.762;14.320;2022-07-23T04:57:05;4.82;;;4.00;;
7166;SDS011;3625;51.762;14.320;2022-07-23T04:59:33;4.07;;;3.63;;
7166;SDS011;3625;51.762;14.320;2022-07-23T05:02:03;5.25;;;3.97;;
7166;SDS011;3625;51.762;14.320;2022-07-23T05:04:33;4.13;;;3.83;;
7166;SDS011;3625;51.762;14.320;2022-07-23T05:07:02;5.13;;;4.20;;
7166;SDS011;3625;51.762;14.320;2022-07-23T05:09:32;5.38;;;4.32;;
7166;SDS011;3625;51.762;14.320;2022-07-23T05:12:02;4.90;;;4.15;;
7166;SDS011;3625;51.762;14.320;2022-07-23T05:14:33;5.40;;;5.00;;
7166;SDS011;3625;51.762;14.320;2022-07-23T05:17:02;9.07;;;7.70;;
7166;SDS011;3625;51.762;14.320;2022-07-23T05:19:31;4.70;;;4.30;;
7166;SDS011;3625;51.762;14.320;2022-07-23T05:22:00;5.68;;;5.10;;
7166;SDS011;3625;51.762;14.320;2022-07-23T05:24:30;5.13;;;4.72;;
7166;SDS011;3625;51.762;14.320;2022-07-23T05:27:02;4.78;;;4.35;;
7166;SDS011;3625;51.762;14.320;2022-07-23T05:29:31;4.82;;;4.43;;
7166;SDS011;3625;51.762;14.320;2022-07-23T05:32:00;4.88;;;4.35;;
7166;SDS011;3625;51.762;14.320;2022-07-23T05:34:31;5.15;;;4.65;;
7166;SDS011;3625;51.762;14.320;2022-07-23T05:37:00;4.97;;;4.50;;
7166;SDS011;3625;51.762;14.320;2022-07-23T05:39:29;5.50;;;4.28;;
7166;SDS011;3625;51.762;14.320;2022-07-23T05:41:58;6.50;;;4.95;;
7166;SDS011;3625;51.762;14.320;2022-07-23T05:44:28;5.18;;;4.78;;
7166;SDS011;3625;51.762;14.320;2022-07-23T05:47:01;5.63;;;5.07;;
7166;SDS011;3625;51.762;14.320;2022-07-23T05:49:30;6.00;;;5.40;;
7166;SDS011;3625;51.762;14.320;2022-07-23T05:52:31;6.78;;;6.18;;
7166;SDS011;3625;51.762;14.320;2022-07-23T05:55:25;6.10;;;5.40;;
7166;SDS011;3625;51.762;14.320;2022-07-23T05:57:55;5.50;;;4.95;;
7166;SDS011;3625;51.762;14.320;2022-07-23T06:00:27;6.30;;;5.70;;
7166;SDS011;3625;51.762;14.320;2022-07-23T06:02:57;5.72;;;5.22;;
7166;SDS011;3625;51.762;14.320;2022-07-23T06:05:29;6.70;;;5.95;;
7166;SDS011;3625;51.762;14.320;2022-07-23T06:07:58;5.22;;;4.72;;
7166;SDS011;3625;51.762;14.320;2022-07-23T06:10:28;6.18;;;5.22;;
7166;SDS011;3625;51.762;14.320;2022-07-23T06:12:56;5.57;;;5.07;;
7166;SDS011;3625;51.762;14.320;2022-07-23T06:15:30;7.07;;;4.93;;
7166;SDS011;3625;51.762;14.320;2022-07-23T06:17:59;5.85;;;5.18;;
7166;SDS011;3625;51.762;14.320;2022-07-23T06:20:28;5.82;;;5.22;;
7166;SDS011;3625;51.762;14.320;2022-07-23T06:22:57;5.45;;;4.95;;
7166;SDS011;3625;51.762;14.320;2022-07-23T06:25:27;5.85;;;5.32;;
7166;SDS011;3625;51.762;14.320;2022-07-23T06:27:56;7.43;;;5.55;;
7166;SDS011;3625;51.762;14.320;2022-07-23T06:30:26;6.05;;;5.45;;
7166;SDS011;3625;51.762;14.320;2022-07-23T06:32:57;5.95;;;5.35;;
7166;SDS011;3625;51.762;14.320;2022-07-23T06:35:25;6.68;;;5.00;;
7166;SDS011;3625;51.762;14.320;2022-07-23T06:37:54;5.50;;;5.00;;
7166;SDS011;3625;51.762;14.320;2022-07-23T06:40:23;5.70;;;5.20;;
7166;SDS011;3625;51.762;14.320;2022-07-23T06:42:52;4.95;;;4.55;;
7166;SDS011;3625;51.762;14.320;2022-07-23T06:45:22;4.78;;;4.38;;
7166;SDS011;3625;51.762;14.320;2022-07-23T06:47:51;5.95;;;5.45;;
7166;SDS011;3625;51.762;14.320;2022-07-23T06:50:21;5.35;;;4.90;;
7166;SDS011;3625;51.762;14.320;2022-07-23T06:52:50;6.07;;;5.20;;
7166;SDS011;3625;51.762;14.320;2022-07-23T06:55:19;5.45;;;5.00;;
7166;SDS011;3625;51.762;14.320;2022-07-23T06:57:48;6.55;;;5.00;;
7166;SDS011;3625;51.762;14.320;2022-07-23T07:00:17;5.80;;;5.30;;
7166;SDS011;3625;51.762;14.320;2022-07-23T07:02:47;7.63;;;5.50;;
7166;SDS011;3625;51.762;14.320;2022-07-23T07:05:15;5.90;;;4.75;;
7166;SDS011;3625;51.762;14.320;2022-07-23T07:07:46;5.38;;;4.88;;
7166;SDS011;3625;51.762;14.320;2022-07-23T07:10:16;5.68;;;4.75;;
7166;SDS011;3625;51.762;14.320;2022-07-23T07:12:45;7.00;;;5.32;;
7166;SDS011;3625;51.762;14.320;2022-07-23T07:15:14;5.53;;;4.50;;
7166;SDS011;3625;51.762;14.320;2022-07-23T07:17:43;5.57;;;4.95;;
7166;SDS011;3625;51.762;14.320;2022-07-23T07:20:12;5.35;;;4.95;;
7166;SDS011;3625;51.762;14.320;2022-07-23T07:22:42;7.22;;;4.78;;
7166;SDS011;3625;51.762;14.320;2022-07-23T07:25:13;6.35;;;5.38;;
7166;SDS011;3625;51.762;14.320;2022-07-23T07:27:42;6.70;;;5.40;;
7166;SDS011;3625;51.762;14.320;2022-07-23T07:30:11;6.22;;;5.35;;
7166;SDS011;3625;51.762;14.320;2022-07-23T07:32:40;6.63;;;5.40;;
7166;SDS011;3625;51.762;14.320;2022-07-23T07:35:25;6.55;;;5.82;;
7166;SDS011;3625;51.762;14.320;2022-07-23T07:37:54;5.38;;;4.88;;
7166;SDS011;3625;51.762;14.320;2022-07-23T07:40:24;5.53;;;5.03;;
7166;SDS011;3625;51.762;14.320;2022-07-23T07:42:59;4.95;;;4.55;;
7166;SDS011;3625;51.762;14.320;2022-07-23T07:45:30;6.88;;;4.90;;
7166;SDS011;3625;51.762;14.320;2022-07-23T07:47:59;6.63;;;5.30;;
7166;SDS011;3625;51.762;14.320;2022-07-23T07:50:28;6.43;;;5.32;;
7166;SDS011;3625;51.762;14.320;2022-07-23T07:52:57;5.10;;;4.60;;
7166;SDS011;3625;51.762;14.320;2022-07-23T07:55:28;5.47;;;4.57;;
7166;SDS011;3625;51.762;14.320;2022-07-23T07:57:58;5.80;;;5.25;;
7166;SDS011;3625;51.762;14.320;2022-07-23T08:00:28;5.43;;;4.40;;
7166;SDS011;3625;51.762;14.320;2022-07-23T08:02:58;5.25;;;4.50;;
7166;SDS011;3625;51.762;14.320;2022-07-23T08:05:29;5.30;;;4.80;;
7166;SDS011;3625;51.762;14.320;2022-07-23T08:07:59;4.90;;;4.47;;
7166;SDS011;3625;51.762;14.320;2022-07-23T08:10:29;4.10;;;3.80;;
7166;SDS011;3625;51.762;14.320;2022-07-23T08:12:58;5.55;;;4.22;;
7166;SDS011;3625;51.762;14.320;2022-07-23T08:15:29;4.78;;;4.28;;
7166;SDS011;3625;51.762;14.320;2022-07-23T08:17:59;4.78;;;4.25;;
7166;SDS011;3625;51.762;14.320;2022-07-23T08:20:28;5.10;;;4.65;;
7166;SDS011;3625;51.762;14.320;2022-07-23T08:22:58;5.40;;;4.90;;
7166;SDS011;3625;51.762;14.320;2022-07-23T08:25:32;4.57;;;4.15;;
7166;SDS011;3625;51.762;14.320;2022-07-23T08:28:03;5.60;;;4.22;;
7166;SDS011;3625;51.762;14.320;2022-07-23T08:30:35;4.53;;;4.07;;
7166;SDS011;3625;51.762;14.320;2022-07-23T08:33:06;4.68;;;3.95;;
7166;SDS011;3625;51.762;14.320;2022-07-23T08:35:58;4.40;;;3.92;;
7166;SDS011;3625;51.762;14.320;2022-07-23T08:38:30;5.07;;;3.90;;
7166;SDS011;3625;51.762;14.320;2022-07-23T08:41:02;3.88;;;3.58;;
7166;SDS011;3625;51.762;14.320;2022-07-23T08:43:32;4.70;;;3.88;;
7166;SDS011;3625;51.762;14.320;2022-07-23T08:46:03;7.28;;;4.07;;
7166;SDS011;3625;51.762;14.320;2022-07-23T08:48:33;5.65;;;4.60;;
7166;SDS011;3625;51.762;14.320;2022-07-23T08:51:05;7.30;;;4.07;;
7166;SDS011;3625;51.762;14.320;2022-07-23T08:53:37;3.85;;;3.55;;
7166;SDS011;3625;51.762;14.320;2022-07-23T08:56:09;4.78;;;4.38;;
7166;SDS011;3625;51.762;14.320;2022-07-23T08:58:37;4.07;;;3.53;;
7166;SDS011;3625;51.762;14.320;2022-07-23T09:01:06;3.80;;;3.50;;
7166;SDS011;3625;51.762;14.320;2022-07-23T09:03:36;4.35;;;3.95;;
7166;SDS011;3625;51.762;14.320;2022-07-23T09:06:06;5.03;;;4.18;;
7166;SDS011;3625;51.762;14.320;2022-07-23T09:08:36;5.85;;;4.68;;
7166;SDS011;3625;51.762;14.320;2022-07-23T09:11:07;4.80;;;4.30;;
7166;SDS011;3625;51.762;14.320;2022-07-23T09:13:39;4.88;;;4.35;;
7166;SDS011;3625;51.762;14.320;2022-07-23T09:16:11;5.03;;;4.53;;
7166;SDS011;3625;51.762;14.320;2022-07-23T09:18:44;6.30;;;4.75;;
7166;SDS011;3625;51.762;14.320;2022-07-23T09:21:20;4.60;;;4.10;;
7166;SDS011;3625;51.762;14.320;2022-07-23T09:23:52;5.22;;;4.72;;
7166;SDS011;3625;51.762;14.320;2022-07-23T09:26:31;4.90;;;4.50;;
7166;SDS011;3625;51.762;14.320;2022-07-23T09:29:12;4.82;;;4.43;;
7166;SDS011;3625;51.762;14.320;2022-07-23T09:31:46;5.00;;;4.60;;
7166;SDS011;3625;51.762;14.320;2022-07-23T09:34:19;5.20;;;4.43;;
7166;SDS011;3625;51.762;14.320;2022-07-23T09:36:50;5.25;;;4.63;;
7166;SDS011;3625;51.762;14.320;2022-07-23T09:39:25;5.38;;;4.88;;
7166;SDS011;3625;51.762;14.320;2022-07-23T09:41:57;4.95;;;4.55;;
7166;SDS011;3625;51.762;14.320;2022-07-23T09:44:41;5.03;;;4.53;;
7166;SDS011;3625;51.762;14.320;2022-07-23T09:47:11;5.30;;;4.80;;
7166;SDS011;3625;51.762;14.320;2022-07-23T09:49:40;5.30;;;4.78;;
7166;SDS011;3625;51.762;14.320;2022-07-23T09:52:28;5.35;;;4.85;;
7166;SDS011;3625;51.762;14.320;2022-07-23T09:55:03;5.20;;;4.70;;
7166;SDS011;3625;51.762;14.320;2022-07-23T09:57:35;5.15;;;4.65;;
7166;SDS011;3625;51.762;14.320;2022-07-23T10:00:06;5.13;;;4.70;;
7166;SDS011;3625;51.762;14.320;2022-07-23T10:02:38;4.47;;;4.13;;
7166;SDS011;3625;51.762;14.320;2022-07-23T10:05:27;4.45;;;3.88;;
7166;SDS011;3625;51.762;14.320;2022-07-23T10:08:17;4.57;;;4.18;;
7166;SDS011;3625;51.762;14.320;2022-07-23T10:11:07;4.85;;;3.95;;
7166;SDS011;3625;51.762;14.320;2022-07-23T10:13:43;4.47;;;4.07;;
7166;SDS011;3625;51.762;14.320;2022-07-23T10:16:21;3.90;;;3.60;;
7166;SDS011;3625;51.762;14.320;2022-07-23T10:18:53;3.80;;;3.50;;
7166;SDS011;3625;51.762;14.320;2022-07-23T10:21:24;4.05;;;3.30;;
7166;SDS011;3625;51.762;14.320;2022-07-23T10:24:09;3.35;;;3.05;;
7166;SDS011;3625;51.762;14.320;2022-07-23T10:26:51;3.92;;;3.35;;
7166;SDS011;3625;51.762;14.320;2022-07-23T10:29:38;3.70;;;3.40;;
7166;SDS011;3625;51.762;14.320;2022-07-23T10:32:20;3.88;;;3.58;;
7166;SDS011;3625;51.762;14.320;2022-07-23T10:35:08;4.28;;;3.88;;
7166;SDS011;3625;51.762;14.320;2022-07-23T10:37:51;3.60;;;3.30;;
7166;SDS011;3625;51.762;14.320;2022-07-23T10:40:35;3.80;;;3.50;;
7166;SDS011;3625;51.762;14.320;2022-07-23T10:43:04;5.32;;;4.80;;
7166;SDS011;3625;51.762;14.320;2022-07-23T10:45:49;4.40;;;4.00;;
7166;SDS011;3625;51.762;14.320;2022-07-23T10:48:19;4.40;;;4.10;;
7166;SDS011;3625;51.762;14.320;2022-07-23T10:51:05;4.28;;;3.88;;
7166;SDS011;3625;51.762;14.320;2022-07-23T10:53:55;4.57;;;4.00;;
7166;SDS011;3625;51.762;14.320;2022-07-23T11:02:45;5.22;;;3.92;;
7166;SDS011;3625;51.762;14.320;2022-07-23T11:05:17;3.70;;;3.40;;
7166;SDS011;3625;51.762;14.320;2022-07-23T11:10:50;4.20;;;3.90;;
7166;SDS011;3625;51.762;14.320;2022-07-23T11:16:21;4.85;;;4.38;;
7166;SDS011;3625;51.762;14.320;2022-07-23T11:18:58;5.43;;;4.00;;
7166;SDS011;3625;51.762;14.320;2022-07-23T11:21:44;4.50;;;4.10;;
7166;SDS011;3625;51.762;14.320;2022-07-23T11:24:16;4.43;;;4.03;;
7166;SDS011;3625;51.762;14.320;2022-07-23T11:27:03;4.72;;;4.32;;
7166;SDS011;3625;51.762;14.320;2022-07-23T11:29:41;5.40;;;4.45;;
7166;SDS011;3625;51.762;14.320;2022-07-23T11:32:23;4.47;;;4.15;;
7166;SDS011;3625;51.762;14.320;2022-07-23T11:34:58;4.47;;;4.03;;
7166;SDS011;3625;51.762;14.320;2022-07-23T11:37:32;4.65;;;4.25;;
7166;SDS011;3625;51.762;14.320;2022-07-23T11:40:08;5.15;;;4.68;;
7166;SDS011;3625;51.762;14.320;2022-07-23T11:42:40;4.15;;;3.80;;
7166;SDS011;3625;51.762;14.320;2022-07-23T11:45:25;4.07;;;3.78;;
7166;SDS011;3625;51.762;14.320;2022-07-23T11:47:59;4.47;;;4.18;;
7166;SDS011;3625;51.762;14.320;2022-07-23T11:50:30;4.30;;;3.97;;
7166;SDS011;3625;51.762;14.320;2022-07-23T11:52:58;5.15;;;4.53;;
7166;SDS011;3625;51.762;14.320;2022-07-23T11:55:28;4.05;;;3.75;;
7166;SDS011;3625;51.762;14.320;2022-07-23T11:57:57;4.80;;;3.97;;
7166;SDS011;3625;51.762;14.320;2022-07-23T12:00:26;4.38;;;3.97;;
7166;SDS011;3625;51.762;14.320;2022-07-23T12:03:04;4.82;;;4.38;;
7166;SDS011;3625;51.762;14.320;2022-07-23T12:05:36;5.05;;;4.55;;
7166;SDS011;3625;51.762;14.320;2022-07-23T12:08:07;4.45;;;4.10;;
7166;SDS011;3625;51.762;14.320;2022-07-23T12:10:38;4.40;;;4.00;;
7166;SDS011;3625;51.762;14.320;2022-07-23T12:13:11;4.32;;;3.92;;
7166;SDS011;3625;51.762;14.320;2022-07-23T12:15:42;5.30;;;4.80;;
7166;SDS011;3625;51.762;14.320;2022-07-23T12:18:15;4.85;;;4.35;;
7166;SDS011;3625;51.762;14.320;2022-07-23T12:20:52;5.18;;;4.78;;
7166;SDS011;3625;51.762;14.320;2022-07-23T12:23:24;5.10;;;4.68;;
7166;SDS011;3625;51.762;14.320;2022-07-23T12:25:54;4.18;;;3.83;;
7166;SDS011;3625;51.762;14.320;2022-07-23T12:28:29;5.20;;;4.70;;
7166;SDS011;3625;51.762;14.320;2022-07-23T12:31:00;5.03;;;4.35;;
7166;SDS011;3625;51.762;14.320;2022-07-23T12:33:30;5.03;;;4.63;;
7166;SDS011;3625;51.762;14.320;2022-07-23T12:36:03;4.97;;;4.50;;
7166;SDS011;3625;51.762;14.320;2022-07-23T12:38:38;4.18;;;3.85;;
7166;SDS011;3625;51.762;14.320;2022-07-23T12:41:08;4.30;;;4.00;;
7166;SDS011;3625;51.762;14.320;2022-07-23T12:43:39;5.00;;;4.47;;
7166;SDS011;3625;51.762;14.320;2022-07-23T12:46:10;5.57;;;4.60;;
7166;SDS011;3625;51.762;14.320;2022-07-23T12:48:49;5.28;;;4.43;;
7166;SDS011;3625;51.762;14.320;2022-07-23T12:51:22;5.05;;;4.65;;
7166;SDS011;3625;51.762;14.320;2022-07-23T12:53:55;5.20;;;4.68;;
7166;SDS011;3625;51.762;14.320;2022-07-23T12:56:28;4.45;;;4.15;;
7166;SDS011;3625;51.762;14.320;2022-07-23T12:59:04;4.78;;;4.38;;
7166;SDS011;3625;51.762;14.320;2022-07-23T13:01:38;5.53;;;4.38;;
7166;SDS011;3625;51.762;14.320;2022-07-23T13:04:12;4.82;;;4.43;;
7166;SDS011;3625;51.762;14.320;2022-07-23T13:06:45;5.15;;;4.75;;
7166;SDS011;3625;51.762;14.320;2022-07-23T13:09:16;4.68;;;4.20;;
7166;SDS011;3625;51.762;14.320;2022-07-23T13:11:47;5.03;;;4.07;;
7166;SDS011;3625;51.762;14.320;2022-07-23T13:14:18;5.15;;;4.72;;
7166;SDS011;3625;51.762;14.320;2022-07-23T13:16:48;5.35;;;4.55;;
7166;SDS011;3625;51.762;14.320;2022-07-23T13:19:19;6.57;;;4.35;;
7166;SDS011;3625;51.762;14.320;2022-07-23T13:21:52;4.57;;;4.13;;
7166;SDS011;3625;51.762;14.320;2022-07-23T13:24:21;4.40;;;4.00;;
7166;SDS011;3625;51.762;14.320;2022-07-23T13:26:51;5.38;;;4.40;;
7166;SDS011;3625;51.762;14.320;2022-07-23T13:29:20;5.00;;;4.50;;
7166;SDS011;3625;51.762;14.320;2022-07-23T13:31:48;4.60;;;3.95;;
7166;SDS011;3625;51.762;14.320;2022-07-23T13:34:17;4.95;;;4.15;;
7166;SDS011;3625;51.762;14.320;2022-07-23T13:36:46;4.13;;;3.72;;
7166;SDS011;3625;51.762;14.320;2022-07-23T13:39:16;4.22;;;3.83;;
7166;SDS011;3625;51.762;14.320;2022-07-23T13:41:45;4.35;;;3.92;;
7166;SDS011;3625;51.762;14.320;2022-07-23T13:44:16;4.85;;;4.00;;
7166;SDS011;3625;51.762;14.320;2022-07-23T13:46:48;4.78;;;4.30;;
7166;SDS011;3625;51.762;14.320;2022-07-23T13:49:17;5.28;;;3.45;;
7166;SDS011;3625;51.762;14.320;2022-07-23T13:51:48;4.55;;;3.72;;
7166;SDS011;3625;51.762;14.320;2022-07-23T13:54:18;4.47;;;3.60;;
7166;SDS011;3625;51.762;14.320;2022-07-23T13:56:48;5.07;;;3.60;;
7166;SDS011;3625;51.762;14.320;2022-07-23T13:59:19;4.07;;;3.78;;
7166;SDS011;3625;51.762;14.320;2022-07-23T14:01:52;4.03;;;3.63;;
7166;SDS011;3625;51.762;14.320;2022-07-23T14:04:41;4.32;;;3.92;;
7166;SDS011;3625;51.762;14.320;2022-07-23T14:07:09;4.32;;;3.92;;
7166;SDS011;3625;51.762;14.320;2022-07-23T14:09:40;5.45;;;4.40;;
7166;SDS011;3625;51.762;14.320;2022-07-23T14:12:09;4.40;;;3.83;;
7166;SDS011;3625;51.762;14.320;2022-07-23T14:14:38;4.35;;;3.88;;
7166;SDS011;3625;51.762;14.320;2022-07-23T14:17:08;4.40;;;3.97;;
7166;SDS011;3625;51.762;14.320;2022-07-23T14:19:37;4.18;;;3.80;;
7166;SDS011;3625;51.762;14.320;2022-07-23T14:22:06;5.57;;;4.20;;
7166;SDS011;3625;51.762;14.320;2022-07-23T14:24:35;3.92;;;3.63;;
7166;SDS011;3625;51.762;14.320;2022-07-23T14:27:05;3.95;;;3.47;;
7166;SDS011;3625;51.762;14.320;2022-07-23T14:29:34;4.57;;;3.05;;
7166;SDS011;3625;51.762;14.320;2022-07-23T14:32:03;3.03;;;2.72;;
7166;SDS011;3625;51.762;14.320;2022-07-23T14:34:33;4.05;;;2.92;;
7166;SDS011;3625;51.762;14.320;2022-07-23T14:37:04;4.47;;;2.72;;
7166;SDS011;3625;51.762;14.320;2022-07-23T14:39:33;3.75;;;2.90;;
7166;SDS011;3625;51.762;14.320;2022-07-23T14:42:02;2.90;;;2.60;;
7166;SDS011;3625;51.762;14.320;2022-07-23T14:44:33;3.33;;;2.55;;
7166;SDS011;3625;51.762;14.320;2022-07-23T14:47:04;4.93;;;3.40;;
7166;SDS011;3625;51.762;14.320;2022-07-23T14:49:35;3.83;;;2.60;;
7166;SDS011;3625;51.762;14.320;2022-07-23T14:52:04;3.15;;;2.50;;
7166;SDS011;3625;51.762;14.320;2022-07-23T14:54:34;3.72;;;2.90;;
7166;SDS011;3625;51.762;14.320;2022-07-23T14:57:04;3.58;;;2.97;;
7166;SDS011;3625;51.762;14.320;2022-07-23T14:59:36;3.55;;;3.05;;
7166;SDS011;3625;51.762;14.320;2022-07-23T15:02:06;4.38;;;3.35;;
7166;SDS011;3625;51.762;14.320;2022-07-23T15:04:35;5.43;;;3.70;;
7166;SDS011;3625;51.762;14.320;2022-07-23T15:07:04;5.20;;;3.55;;
7166;SDS011;3625;51.762;14.320;2022-07-23T15:09:35;3.63;;;3.33;;
7166;SDS011;3625;51.762;14.320;2022-07-23T15:12:06;5.20;;;3.58;;
7166;SDS011;3625;51.762;14.320;2022-07-23T15:14:38;3.90;;;3.40;;
7166;SDS011;3625;51.762;14.320;2022-07-23T15:17:07;4.68;;;3.60;;
7166;SDS011;3625;51.762;14.320;2022-07-23T15:19:40;4.35;;;3.35;;
7166;SDS011;3625;51.762;14.320;2022-07-23T15:22:10;4.05;;;3.55;;
7166;SDS011;3625;51.762;14.320;2022-07-23T15:24:41;4.07;;;3.67;;
7166;SDS011;3625;51.762;14.320;2022-07-23T15:27:11;4.13;;;3.70;;
7166;SDS011;3625;51.762;14.320;2022-07-23T15:29:40;3.53;;;3.22;;
7166;SDS011;3625;51.762;14.320;2022-07-23T15:32:09;4.28;;;3.88;;
7166;SDS011;3625;51.762;14.320;2022-07-23T15:34:39;4.03;;;3.63;;
7166;SDS011;3625;51.762;14.320;2022-07-23T15:37:08;4.38;;;3.60;;
7166;SDS011;3625;51.762;14.320;2022-07-23T15:39:40;4.03;;;3.30;;